sensor_id;sensor_type;location;lat;lon;timestamp;temperature;humidity
1259;DHT22;619;51.472;6.628;2023-08-01T00:01:39;22.50;91.70
1259;DHT22;619;51.472;6.628;2023-08-01T00:04:05;22.50;91.60
1259;DHT22;619;51.472;6.628;2023-08-01T00:06:33;22.50;91.60
1259;DHT22;619;51.472;6.628;2023-08-01T00:08:58;22.60;91.50
1259;DHT22;619;51.472;6.628;2023-08-01T00:11:24;22.60;91.40
1259;DHT22;619;51.472;6.628;2023-08-01T00:13:52;22.60;91.30
1259;DHT22;619;51.472;6.628;2023-08-01T00:16:17;22.60;91.30
1259;DHT22;619;51.472;6.628;2023-08-01T00:18:43;22.70;91.30
1259;DHT22;619;51.472;6.628;2023-08-01T00:21:09;22.70;91.30
1259;DHT22;619;51.472;6.628;2023-08-01T00:23:37;22.70;91.30
1259;DHT22;619;51.472;6.628;2023-08-01T00:26:07;22.80;91.30
1259;DHT22;619;51.472;6.628;2023-08-01T00:28:32;22.80;91.20
1259;DHT22;619;51.472;6.628;2023-08-01T00:31:06;22.80;91.20
1259;DHT22;619;51.472;6.628;2023-08-01T00:33:34;22.90;91.20
1259;DHT22;619;51.472;6.628;2023-08-01T00:36:02;22.90;91.10
1259;DHT22;619;51.472;6.628;2023-08-01T00:38:28;22.90;91.10
1259;DHT22;619;51.472;6.628;2023-08-01T00:40:54;22.90;91.10
1259;DHT22;619;51.472;6.628;2023-08-01T00:43:19;23.00;91.30
1259;DHT22;619;51.472;6.628;2023-08-01T00:45:48;23.00;91.00
1259;DHT22;619;51.472;6.628;2023-08-01T00:48:14;23.00;91.00
1259;DHT22;619;51.472;6.628;2023-08-01T00:50:42;23.00;90.90
1259;DHT22;619;51.472;6.628;2023-08-01T00:53:08;23.00;91.00
1259;DHT22;619;51.472;6.628;2023-08-01T00:55:34;23.00;91.00
1259;DHT22;619;51.472;6.628;2023-08-01T00:58:00;23.00;90.90
1259;DHT22;619;51.472;6.628;2023-08-01T01:00:29;23.00;91.00
1259;DHT22;619;51.472;6.628;2023-08-01T01:02:55;23.10;90.90
1259;DHT22;619;51.472;6.628;2023-08-01T01:05:22;23.10;90.90
1259;DHT22;619;51.472;6.628;2023-08-01T01:07:54;23.10;90.90
1259;DHT22;619;51.472;6.628;2023-08-01T01:10:23;23.10;90.90
1259;DHT22;619;51.472;6.628;2023-08-01T01:12:48;23.10;90.80
1259;DHT22;619;51.472;6.628;2023-08-01T01:15:15;23.00;90.70
1259;DHT22;619;51.472;6.628;2023-08-01T01:17:41;23.00;90.70
1259;DHT22;619;51.472;6.628;2023-08-01T01:20:09;23.00;90.60
1259;DHT22;619;51.472;6.628;2023-08-01T01:22:36;22.80;90.40
1259;DHT22;619;51.472;6.628;2023-08-01T01:25:03;22.70;90.50
1259;DHT22;619;51.472;6.628;2023-08-01T01:27:32;22.60;90.50
1259;DHT22;619;51.472;6.628;2023-08-01T01:30:02;22.50;90.40
1259;DHT22;619;51.472;6.628;2023-08-01T01:32:29;22.40;90.50
1259;DHT22;619;51.472;6.628;2023-08-01T01:34:55;22.30;90.60
1259;DHT22;619;51.472;6.628;2023-08-01T01:37:24;22.20;90.70
1259;DHT22;619;51.472;6.628;2023-08-01T01:39:49;22.10;90.70
1259;DHT22;619;51.472;6.628;2023-08-01T01:42:17;22.10;90.70
1259;DHT22;619;51.472;6.628;2023-08-01T01:44:45;22.10;90.90
1259;DHT22;619;51.472;6.628;2023-08-01T01:47:11;22.00;90.90
1259;DHT22;619;51.472;6.628;2023-08-01T01:49:41;22.00;91.00
1259;DHT22;619;51.472;6.628;2023-08-01T01:52:14;22.10;91.00
1259;DHT22;619;51.472;6.628;2023-08-01T01:54:39;22.10;91.00
1259;DHT22;619;51.472;6.628;2023-08-01T01:57:05;22.10;91.00
1259;DHT22;619;51.472;6.628;2023-08-01T01:59:40;22.10;91.00
1259;DHT22;619;51.472;6.628;2023-08-01T02:02:10;22.10;91.10
1259;DHT22;619;51.472;6.628;2023-08-01T02:04:37;22.10;91.10
1259;DHT22;619;51.472;6.628;2023-08-01T02:07:03;22.20;91.20
1259;DHT22;619;51.472;6.628;2023-08-01T02:09:28;22.20;91.20
1259;DHT22;619;51.472;6.628;2023-08-01T02:11:56;22.20;91.20
1259;DHT22;619;51.472;6.628;2023-08-01T02:14:24;22.20;91.20
1259;DHT22;619;51.472;6.628;2023-08-01T02:16:50;22.20;91.20
1259;DHT22;619;51.472;6.628;2023-08-01T02:19:20;22.20;91.20
1259;DHT22;619;51.472;6.628;2023-08-01T02:21:46;22.30;91.30
1259;DHT22;619;51.472;6.628;2023-08-01T02:24:16;22.30;91.20
1259;DHT22;619;51.472;6.628;2023-08-01T02:26:41;22.30;91.20
1259;DHT22;619;51.472;6.628;2023-08-01T02:29:07;22.30;91.30
1259;DHT22;619;51.472;6.628;2023-08-01T02:31:33;22.30;91.20
1259;DHT22;619;51.472;6.628;2023-08-01T02:33:58;22.40;91.20
1259;DHT22;619;51.472;6.628;2023-08-01T02:36:26;22.40;91.20
1259;DHT22;619;51.472;6.628;2023-08-01T02:38:54;22.40;91.10
1259;DHT22;619;51.472;6.628;2023-08-01T02:41:19;22.40;91.10
1259;DHT22;619;51.472;6.628;2023-08-01T02:43:45;22.40;91.10
1259;DHT22;619;51.472;6.628;2023-08-01T02:46:11;22.30;91.00
1259;DHT22;619;51.472;6.628;2023-08-01T02:48:36;22.30;91.00
1259;DHT22;619;51.472;6.628;2023-08-01T02:51:02;22.20;91.00
1259;DHT22;619;51.472;6.628;2023-08-01T02:53:30;22.20;91.00
1259;DHT22;619;51.472;6.628;2023-08-01T02:55:57;22.20;91.00
1259;DHT22;619;51.472;6.628;2023-08-01T02:58:23;22.10;90.90
1259;DHT22;619;51.472;6.628;2023-08-01T03:00:51;22.10;90.90
1259;DHT22;619;51.472;6.628;2023-08-01T03:03:19;22.10;91.00
1259;DHT22;619;51.472;6.628;2023-08-01T03:05:47;22.00;91.00
1259;DHT22;619;51.472;6.628;2023-08-01T03:08:15;22.00;90.90
1259;DHT22;619;51.472;6.628;2023-08-01T03:10:41;21.90;90.80
1259;DHT22;619;51.472;6.628;2023-08-01T03:13:06;21.80;90.90
1259;DHT22;619;51.472;6.628;2023-08-01T03:15:35;21.80;90.90
1259;DHT22;619;51.472;6.628;2023-08-01T03:18:00;21.80;90.90
1259;DHT22;619;51.472;6.628;2023-08-01T03:20:26;21.80;90.90
1259;DHT22;619;51.472;6.628;2023-08-01T03:22:56;21.70;90.90
1259;DHT22;619;51.472;6.628;2023-08-01T03:25:26;21.70;90.90
1259;DHT22;619;51.472;6.628;2023-08-01T03:27:54;21.70;90.80
1259;DHT22;619;51.472;6.628;2023-08-01T03:30:20;21.60;90.90
1259;DHT22;619;51.472;6.628;2023-08-01T03:32:46;21.50;90.90
1259;DHT22;619;51.472;6.628;2023-08-01T03:35:12;21.50;91.00
1259;DHT22;619;51.472;6.628;2023-08-01T03:37:42;21.50;91.10
1259;DHT22;619;51.472;6.628;2023-08-01T03:40:10;21.50;91.10
1259;DHT22;619;51.472;6.628;2023-08-01T03:42:39;21.50;91.10
1259;DHT22;619;51.472;6.628;2023-08-01T03:45:08;21.50;91.20
1259;DHT22;619;51.472;6.628;2023-08-01T03:47:36;21.50;91.20
1259;DHT22;619;51.472;6.628;2023-08-01T03:50:02;21.50;91.20
1259;DHT22;619;51.472;6.628;2023-08-01T03:52:30;21.50;91.10
1259;DHT22;619;51.472;6.628;2023-08-01T03:54:56;21.50;91.10
1259;DHT22;619;51.472;6.628;2023-08-01T03:57:26;21.50;91.10
1259;DHT22;619;51.472;6.628;2023-08-01T03:59:52;21.60;91.10
1259;DHT22;619;51.472;6.628;2023-08-01T04:02:17;21.60;91.10
1259;DHT22;619;51.472;6.628;2023-08-01T04:04:44;21.60;91.10
1259;DHT22;619;51.472;6.628;2023-08-01T04:07:14;21.60;91.10
1259;DHT22;619;51.472;6.628;2023-08-01T04:09:39;21.60;91.00
1259;DHT22;619;51.472;6.628;2023-08-01T04:12:05;21.60;91.00
1259;DHT22;619;51.472;6.628;2023-08-01T04:14:32;21.60;90.90
1259;DHT22;619;51.472;6.628;2023-08-01T04:16:58;21.60;90.90
1259;DHT22;619;51.472;6.628;2023-08-01T04:19:23;21.60;90.90
1259;DHT22;619;51.472;6.628;2023-08-01T04:21:51;21.60;90.90
1259;DHT22;619;51.472;6.628;2023-08-01T04:24:17;21.60;90.90
1259;DHT22;619;51.472;6.628;2023-08-01T04:26:42;21.60;90.80
1259;DHT22;619;51.472;6.628;2023-08-01T04:29:12;21.70;90.90
1259;DHT22;619;51.472;6.628;2023-08-01T04:31:43;21.70;90.90
1259;DHT22;619;51.472;6.628;2023-08-01T04:34:11;21.70;90.90
1259;DHT22;619;51.472;6.628;2023-08-01T04:36:39;21.80;90.90
1259;DHT22;619;51.472;6.628;2023-08-01T04:39:04;21.80;90.80
1259;DHT22;619;51.472;6.628;2023-08-01T04:41:33;21.80;90.80
1259;DHT22;619;51.472;6.628;2023-08-01T04:43:59;21.80;90.80
1259;DHT22;619;51.472;6.628;2023-08-01T04:46:24;21.80;90.80
1259;DHT22;619;51.472;6.628;2023-08-01T04:48:52;21.80;90.80
1259;DHT22;619;51.472;6.628;2023-08-01T04:51:20;21.80;90.70
1259;DHT22;619;51.472;6.628;2023-08-01T04:53:48;21.80;90.80
1259;DHT22;619;51.472;6.628;2023-08-01T04:56:14;21.80;90.70
1259;DHT22;619;51.472;6.628;2023-08-01T04:58:45;21.80;90.70
1259;DHT22;619;51.472;6.628;2023-08-01T05:01:10;21.90;90.70
1259;DHT22;619;51.472;6.628;2023-08-01T05:03:36;21.80;91.00
1259;DHT22;619;51.472;6.628;2023-08-01T05:06:02;21.80;90.60
1259;DHT22;619;51.472;6.628;2023-08-01T05:08:27;21.90;90.70
1259;DHT22;619;51.472;6.628;2023-08-01T05:10:57;21.90;90.80
1259;DHT22;619;51.472;6.628;2023-08-01T05:13:25;21.90;90.80
1259;DHT22;619;51.472;6.628;2023-08-01T05:15:51;21.90;90.70
1259;DHT22;619;51.472;6.628;2023-08-01T05:18:17;22.00;90.80
1259;DHT22;619;51.472;6.628;2023-08-01T05:20:47;22.00;90.70
1259;DHT22;619;51.472;6.628;2023-08-01T05:23:15;22.00;90.90
1259;DHT22;619;51.472;6.628;2023-08-01T05:25:41;22.00;90.60
1259;DHT22;619;51.472;6.628;2023-08-01T05:28:06;22.00;90.70
1259;DHT22;619;51.472;6.628;2023-08-01T05:30:32;22.00;90.70
1259;DHT22;619;51.472;6.628;2023-08-01T05:32:58;22.10;90.70
1259;DHT22;619;51.472;6.628;2023-08-01T05:35:26;22.10;90.50
1259;DHT22;619;51.472;6.628;2023-08-01T05:37:51;22.10;90.40
1259;DHT22;619;51.472;6.628;2023-08-01T05:40:17;22.10;90.40
1259;DHT22;619;51.472;6.628;2023-08-01T05:42:42;22.10;90.40
1259;DHT22;619;51.472;6.628;2023-08-01T05:45:08;22.10;90.40
1259;DHT22;619;51.472;6.628;2023-08-01T05:47:36;22.10;90.50
1259;DHT22;619;51.472;6.628;2023-08-01T05:50:06;22.10;90.70
1259;DHT22;619;51.472;6.628;2023-08-01T05:52:32;22.10;90.70
1259;DHT22;619;51.472;6.628;2023-08-01T05:54:58;22.20;90.80
1259;DHT22;619;51.472;6.628;2023-08-01T05:57:23;22.20;90.70
1259;DHT22;619;51.472;6.628;2023-08-01T05:59:49;22.30;90.70
1259;DHT22;619;51.472;6.628;2023-08-01T06:02:17;22.30;90.70
1259;DHT22;619;51.472;6.628;2023-08-01T06:04:45;22.40;90.60
1259;DHT22;619;51.472;6.628;2023-08-01T06:07:10;22.40;90.50
1259;DHT22;619;51.472;6.628;2023-08-01T06:09:36;22.40;90.40
1259;DHT22;619;51.472;6.628;2023-08-01T06:12:04;22.50;90.30
1259;DHT22;619;51.472;6.628;2023-08-01T06:14:33;22.50;90.20
1259;DHT22;619;51.472;6.628;2023-08-01T06:17:01;22.50;90.20
1259;DHT22;619;51.472;6.628;2023-08-01T06:19:29;22.60;90.20
1259;DHT22;619;51.472;6.628;2023-08-01T06:21:55;22.60;90.10
1259;DHT22;619;51.472;6.628;2023-08-01T06:24:23;22.60;90.10
1259;DHT22;619;51.472;6.628;2023-08-01T06:26:48;22.60;90.00
1259;DHT22;619;51.472;6.628;2023-08-01T06:29:16;22.60;90.00
1259;DHT22;619;51.472;6.628;2023-08-01T06:31:46;22.50;89.80
1259;DHT22;619;51.472;6.628;2023-08-01T06:34:12;22.50;89.90
1259;DHT22;619;51.472;6.628;2023-08-01T06:36:38;22.60;90.00
1259;DHT22;619;51.472;6.628;2023-08-01T06:39:05;22.60;90.00
1259;DHT22;619;51.472;6.628;2023-08-01T06:41:31;22.60;90.10
1259;DHT22;619;51.472;6.628;2023-08-01T06:43:57;22.70;90.30
1259;DHT22;619;51.472;6.628;2023-08-01T06:46:23;22.80;90.40
1259;DHT22;619;51.472;6.628;2023-08-01T06:48:48;22.90;90.50
1259;DHT22;619;51.472;6.628;2023-08-01T06:51:18;23.00;90.30
1259;DHT22;619;51.472;6.628;2023-08-01T06:53:44;23.00;89.80
1259;DHT22;619;51.472;6.628;2023-08-01T06:56:12;23.10;89.50
1259;DHT22;619;51.472;6.628;2023-08-01T06:58:38;23.10;89.20
1259;DHT22;619;51.472;6.628;2023-08-01T07:01:03;23.10;89.10
1259;DHT22;619;51.472;6.628;2023-08-01T07:03:29;23.20;89.70
1259;DHT22;619;51.472;6.628;2023-08-01T07:05:54;23.30;90.20
1259;DHT22;619;51.472;6.628;2023-08-01T07:08:20;23.40;90.30
1259;DHT22;619;51.472;6.628;2023-08-01T07:10:46;23.50;90.00
1259;DHT22;619;51.472;6.628;2023-08-01T07:13:12;23.70;89.30
1259;DHT22;619;51.472;6.628;2023-08-01T07:15:42;23.70;88.00
1259;DHT22;619;51.472;6.628;2023-08-01T07:18:08;23.70;87.50
1259;DHT22;619;51.472;6.628;2023-08-01T07:20:36;23.70;87.40
1259;DHT22;619;51.472;6.628;2023-08-01T07:23:04;23.70;87.40
1259;DHT22;619;51.472;6.628;2023-08-01T07:25:34;23.70;87.60
1259;DHT22;619;51.472;6.628;2023-08-01T07:28:02;23.80;87.40
1259;DHT22;619;51.472;6.628;2023-08-01T07:30:29;23.80;86.60
1259;DHT22;619;51.472;6.628;2023-08-01T07:32:54;23.80;86.80
1259;DHT22;619;51.472;6.628;2023-08-01T07:35:20;23.80;87.30
1259;DHT22;619;51.472;6.628;2023-08-01T07:37:45;23.80;87.50
1259;DHT22;619;51.472;6.628;2023-08-01T07:40:11;23.80;87.70
1259;DHT22;619;51.472;6.628;2023-08-01T07:42:39;23.90;88.10
1259;DHT22;619;51.472;6.628;2023-08-01T07:45:05;24.00;88.40
1259;DHT22;619;51.472;6.628;2023-08-01T07:47:31;24.10;88.50
1259;DHT22;619;51.472;6.628;2023-08-01T07:49:57;24.30;89.00
1259;DHT22;619;51.472;6.628;2023-08-01T07:52:25;24.50;88.50
1259;DHT22;619;51.472;6.628;2023-08-01T07:54:53;24.60;87.50
1259;DHT22;619;51.472;6.628;2023-08-01T07:57:23;24.60;86.00
1259;DHT22;619;51.472;6.628;2023-08-01T07:59:49;24.60;85.20
1259;DHT22;619;51.472;6.628;2023-08-01T08:02:14;24.60;85.20
1259;DHT22;619;51.472;6.628;2023-08-01T08:04:40;24.50;85.30
1259;DHT22;619;51.472;6.628;2023-08-01T08:07:10;24.50;85.30
1259;DHT22;619;51.472;6.628;2023-08-01T08:09:36;24.50;85.20
1259;DHT22;619;51.472;6.628;2023-08-01T08:12:02;24.50;85.20
1259;DHT22;619;51.472;6.628;2023-08-01T08:14:27;24.50;84.80
1259;DHT22;619;51.472;6.628;2023-08-01T08:16:53;24.50;84.30
1259;DHT22;619;51.472;6.628;2023-08-01T08:19:23;24.40;84.40
1259;DHT22;619;51.472;6.628;2023-08-01T08:21:53;24.40;84.60
1259;DHT22;619;51.472;6.628;2023-08-01T08:24:21;24.40;84.80
1259;DHT22;619;51.472;6.628;2023-08-01T08:26:46;24.50;86.20
1259;DHT22;619;51.472;6.628;2023-08-01T08:29:12;24.60;86.60
1259;DHT22;619;51.472;6.628;2023-08-01T08:31:37;24.70;85.60
1259;DHT22;619;51.472;6.628;2023-08-01T08:34:03;24.80;84.80
1259;DHT22;619;51.472;6.628;2023-08-01T08:36:33;24.90;84.80
1259;DHT22;619;51.472;6.628;2023-08-01T08:39:01;25.00;84.40
1259;DHT22;619;51.472;6.628;2023-08-01T08:41:30;25.10;83.10
1259;DHT22;619;51.472;6.628;2023-08-01T08:44:01;25.20;83.30
1259;DHT22;619;51.472;6.628;2023-08-01T08:46:30;25.40;83.40
1259;DHT22;619;51.472;6.628;2023-08-01T08:48:57;25.50;83.40
1259;DHT22;619;51.472;6.628;2023-08-01T08:51:26;25.60;82.80
1259;DHT22;619;51.472;6.628;2023-08-01T08:53:56;25.60;82.00
1259;DHT22;619;51.472;6.628;2023-08-01T08:56:23;25.60;82.10
1259;DHT22;619;51.472;6.628;2023-08-01T08:58:51;25.60;81.40
1259;DHT22;619;51.472;6.628;2023-08-01T09:01:17;25.70;81.10
1259;DHT22;619;51.472;6.628;2023-08-01T09:03:43;25.70;81.80
1259;DHT22;619;51.472;6.628;2023-08-01T09:06:15;25.80;81.60
1259;DHT22;619;51.472;6.628;2023-08-01T09:08:50;25.90;81.80
1259;DHT22;619;51.472;6.628;2023-08-01T09:11:16;26.00;80.60
1259;DHT22;619;51.472;6.628;2023-08-01T09:13:42;26.10;80.00
1259;DHT22;619;51.472;6.628;2023-08-01T09:16:14;26.20;79.40
1259;DHT22;619;51.472;6.628;2023-08-01T09:18:54;26.30;79.00
1259;DHT22;619;51.472;6.628;2023-08-01T09:21:21;26.50;77.50
1259;DHT22;619;51.472;6.628;2023-08-01T09:23:49;26.60;78.30
1259;DHT22;619;51.472;6.628;2023-08-01T09:26:18;26.70;77.70
1259;DHT22;619;51.472;6.628;2023-08-01T09:28:55;26.90;76.20
1259;DHT22;619;51.472;6.628;2023-08-01T09:31:29;27.00;75.90
1259;DHT22;619;51.472;6.628;2023-08-01T09:33:55;27.10;76.70
1259;DHT22;619;51.472;6.628;2023-08-01T09:36:22;27.30;77.80
1259;DHT22;619;51.472;6.628;2023-08-01T09:38:51;27.50;74.90
1259;DHT22;619;51.472;6.628;2023-08-01T09:41:22;27.60;77.10
1259;DHT22;619;51.472;6.628;2023-08-01T09:43:48;27.80;74.50
1259;DHT22;619;51.472;6.628;2023-08-01T09:46:17;27.90;74.70
1259;DHT22;619;51.472;6.628;2023-08-01T09:48:42;27.90;73.60
1259;DHT22;619;51.472;6.628;2023-08-01T09:51:13;28.00;73.00
1259;DHT22;619;51.472;6.628;2023-08-01T09:53:53;28.10;71.50
1259;DHT22;619;51.472;6.628;2023-08-01T09:56:24;28.10;69.40
1259;DHT22;619;51.472;6.628;2023-08-01T09:58:54;28.10;70.70
1259;DHT22;619;51.472;6.628;2023-08-01T10:01:24;28.10;70.00
1259;DHT22;619;51.472;6.628;2023-08-01T10:03:51;28.20;69.90
1259;DHT22;619;51.472;6.628;2023-08-01T10:06:22;28.20;71.00
1259;DHT22;619;51.472;6.628;2023-08-01T10:08:50;28.30;72.50
1259;DHT22;619;51.472;6.628;2023-08-01T10:11:19;28.50;72.10
1259;DHT22;619;51.472;6.628;2023-08-01T10:13:46;28.70;69.60
1259;DHT22;619;51.472;6.628;2023-08-01T10:16:17;28.80;70.00
1259;DHT22;619;51.472;6.628;2023-08-01T10:18:45;28.90;69.50
1259;DHT22;619;51.472;6.628;2023-08-01T10:21:16;28.90;68.40
1259;DHT22;619;51.472;6.628;2023-08-01T10:23:43;28.90;69.00
1259;DHT22;619;51.472;6.628;2023-08-01T10:26:14;28.90;66.80
1259;DHT22;619;51.472;6.628;2023-08-01T10:28:48;28.60;64.40
1259;DHT22;619;51.472;6.628;2023-08-01T10:31:16;28.30;64.50
1259;DHT22;619;51.472;6.628;2023-08-01T10:33:44;27.90;65.20
1259;DHT22;619;51.472;6.628;2023-08-01T10:36:21;27.50;66.40
1259;DHT22;619;51.472;6.628;2023-08-01T10:38:50;27.10;68.10
1259;DHT22;619;51.472;6.628;2023-08-01T10:43:47;26.40;71.00
1259;DHT22;619;51.472;6.628;2023-08-01T10:46:15;25.90;72.00
1259;DHT22;619;51.472;6.628;2023-08-01T10:48:51;25.60;73.70
1259;DHT22;619;51.472;6.628;2023-08-01T10:51:18;25.20;74.90
1259;DHT22;619;51.472;6.628;2023-08-01T10:53:43;24.90;76.70
1259;DHT22;619;51.472;6.628;2023-08-01T10:56:18;24.80;77.90
1259;DHT22;619;51.472;6.628;2023-08-01T10:58:49;24.60;78.40
1259;DHT22;619;51.472;6.628;2023-08-01T11:01:17;24.40;78.80
1259;DHT22;619;51.472;6.628;2023-08-01T11:03:42;24.30;78.40
1259;DHT22;619;51.472;6.628;2023-08-01T11:06:09;24.20;79.20
1259;DHT22;619;51.472;6.628;2023-08-01T11:08:39;24.10;79.50
1259;DHT22;619;51.472;6.628;2023-08-01T11:11:08;24.10;80.40
1259;DHT22;619;51.472;6.628;2023-08-01T11:13:36;24.20;81.20
1259;DHT22;619;51.472;6.628;2023-08-01T11:16:03;24.30;80.30
1259;DHT22;619;51.472;6.628;2023-08-01T11:18:30;24.30;79.10
1259;DHT22;619;51.472;6.628;2023-08-01T11:20:56;24.40;79.10
1259;DHT22;619;51.472;6.628;2023-08-01T11:23:28;24.40;78.20
1259;DHT22;619;51.472;6.628;2023-08-01T11:25:55;24.30;76.00
1259;DHT22;619;51.472;6.628;2023-08-01T11:28:23;24.20;76.80
1259;DHT22;619;51.472;6.628;2023-08-01T11:30:53;24.10;76.90
1259;DHT22;619;51.472;6.628;2023-08-01T11:33:20;24.10;78.10
1259;DHT22;619;51.472;6.628;2023-08-01T11:35:56;24.20;79.50
1259;DHT22;619;51.472;6.628;2023-08-01T11:38:23;24.40;79.50
1259;DHT22;619;51.472;6.628;2023-08-01T11:40:56;24.60;77.60
1259;DHT22;619;51.472;6.628;2023-08-01T11:43:24;24.70;78.00
1259;DHT22;619;51.472;6.628;2023-08-01T11:45:54;24.90;79.20
1259;DHT22;619;51.472;6.628;2023-08-01T11:48:23;25.10;78.00
1259;DHT22;619;51.472;6.628;2023-08-01T11:51:02;25.20;77.30
1259;DHT22;619;51.472;6.628;2023-08-01T11:53:28;25.40;77.10
1259;DHT22;619;51.472;6.628;2023-08-01T11:56:03;25.50;78.00
1259;DHT22;619;51.472;6.628;2023-08-01T11:58:30;25.70;76.80
1259;DHT22;619;51.472;6.628;2023-08-01T12:01:10;25.70;75.80
1259;DHT22;619;51.472;6.628;2023-08-01T12:03:46;25.80;75.10
1259;DHT22;619;51.472;6.628;2023-08-01T12:06:16;25.90;76.40
1259;DHT22;619;51.472;6.628;2023-08-01T12:08:43;26.00;76.50
1259;DHT22;619;51.472;6.628;2023-08-01T12:11:27;26.00;75.50
1259;DHT22;619;51.472;6.628;2023-08-01T12:16:35;26.10;75.00
1259;DHT22;619;51.472;6.628;2023-08-01T12:19:03;26.20;75.20
1259;DHT22;619;51.472;6.628;2023-08-01T12:21:30;26.20;73.50
1259;DHT22;619;51.472;6.628;2023-08-01T12:23:58;26.20;72.10
1259;DHT22;619;51.472;6.628;2023-08-01T12:26:24;26.20;72.50
1259;DHT22;619;51.472;6.628;2023-08-01T12:28:50;26.20;71.00
1259;DHT22;619;51.472;6.628;2023-08-01T12:31:17;26.10;71.10
1259;DHT22;619;51.472;6.628;2023-08-01T12:33:44;26.00;72.40
1259;DHT22;619;51.472;6.628;2023-08-01T12:36:09;26.00;72.70
1259;DHT22;619;51.472;6.628;2023-08-01T12:38:35;26.00;74.00
1259;DHT22;619;51.472;6.628;2023-08-01T12:41:03;26.20;75.60
1259;DHT22;619;51.472;6.628;2023-08-01T12:43:29;26.30;73.60
1259;DHT22;619;51.472;6.628;2023-08-01T12:45:56;26.40;72.60
1259;DHT22;619;51.472;6.628;2023-08-01T12:48:27;26.60;72.10
1259;DHT22;619;51.472;6.628;2023-08-01T12:50:55;26.70;71.00
1259;DHT22;619;51.472;6.628;2023-08-01T12:53:22;26.90;73.10
1259;DHT22;619;51.472;6.628;2023-08-01T12:55:48;27.00;71.50
1259;DHT22;619;51.472;6.628;2023-08-01T12:58:14;27.20;69.90
1259;DHT22;619;51.472;6.628;2023-08-01T13:00:44;27.30;67.60
1259;DHT22;619;51.472;6.628;2023-08-01T13:03:10;27.30;67.70
1259;DHT22;619;51.472;6.628;2023-08-01T13:05:37;27.40;66.60
1259;DHT22;619;51.472;6.628;2023-08-01T13:08:04;27.30;66.20
1259;DHT22;619;51.472;6.628;2023-08-01T13:10:33;27.30;66.20
1259;DHT22;619;51.472;6.628;2023-08-01T13:12:59;27.30;66.70
1259;DHT22;619;51.472;6.628;2023-08-01T13:15:27;27.30;66.30
1259;DHT22;619;51.472;6.628;2023-08-01T13:17:55;27.30;66.30
1259;DHT22;619;51.472;6.628;2023-08-01T13:20:21;27.30;66.20
1259;DHT22;619;51.472;6.628;2023-08-01T13:22:49;27.30;65.80
1259;DHT22;619;51.472;6.628;2023-08-01T13:25:15;27.20;66.10
1259;DHT22;619;51.472;6.628;2023-08-01T13:27:44;27.20;65.30
1259;DHT22;619;51.472;6.628;2023-08-01T13:30:09;27.40;64.10
1259;DHT22;619;51.472;6.628;2023-08-01T13:32:36;27.60;63.00
1259;DHT22;619;51.472;6.628;2023-08-01T13:35:01;27.80;61.10
1259;DHT22;619;51.472;6.628;2023-08-01T13:37:27;27.90;59.60
1259;DHT22;619;51.472;6.628;2023-08-01T13:39:56;28.10;60.40
1259;DHT22;619;51.472;6.628;2023-08-01T13:42:21;28.20;59.10
1259;DHT22;619;51.472;6.628;2023-08-01T13:44:49;28.30;59.10
1259;DHT22;619;51.472;6.628;2023-08-01T13:47:15;28.40;59.30
1259;DHT22;619;51.472;6.628;2023-08-01T13:49:41;28.60;60.10
1259;DHT22;619;51.472;6.628;2023-08-01T13:52:06;28.80;58.50
1259;DHT22;619;51.472;6.628;2023-08-01T13:54:32;29.00;58.90
1259;DHT22;619;51.472;6.628;2023-08-01T13:56:58;29.40;58.80
1259;DHT22;619;51.472;6.628;2023-08-01T13:59:23;29.70;57.70
1259;DHT22;619;51.472;6.628;2023-08-01T14:01:49;30.00;56.50
1259;DHT22;619;51.472;6.628;2023-08-01T14:04:15;30.20;54.30
1259;DHT22;619;51.472;6.628;2023-08-01T14:06:42;30.30;54.50
1259;DHT22;619;51.472;6.628;2023-08-01T14:09:09;30.40;53.80
1259;DHT22;619;51.472;6.628;2023-08-01T14:11:37;30.20;53.50
1259;DHT22;619;51.472;6.628;2023-08-01T14:14:03;30.10;52.80
1259;DHT22;619;51.472;6.628;2023-08-01T14:16:29;30.10;53.70
1259;DHT22;619;51.472;6.628;2023-08-01T14:18:55;30.20;53.70
1259;DHT22;619;51.472;6.628;2023-08-01T14:21:21;30.30;53.90
1259;DHT22;619;51.472;6.628;2023-08-01T14:23:47;30.40;52.30
1259;DHT22;619;51.472;6.628;2023-08-01T14:26:13;30.30;50.90
1259;DHT22;619;51.472;6.628;2023-08-01T14:28:39;30.30;50.80
1259;DHT22;619;51.472;6.628;2023-08-01T14:31:04;30.20;50.70
1259;DHT22;619;51.472;6.628;2023-08-01T14:33:31;30.10;51.60
1259;DHT22;619;51.472;6.628;2023-08-01T14:35:59;29.90;51.90
1259;DHT22;619;51.472;6.628;2023-08-01T14:38:27;29.70;51.80
1259;DHT22;619;51.472;6.628;2023-08-01T14:40:53;29.50;51.90
1259;DHT22;619;51.472;6.628;2023-08-01T14:43:19;29.30;53.00
1259;DHT22;619;51.472;6.628;2023-08-01T14:45:44;29.30;53.70
1259;DHT22;619;51.472;6.628;2023-08-01T14:48:10;29.50;54.10
1259;DHT22;619;51.472;6.628;2023-08-01T14:50:38;29.60;53.00
1259;DHT22;619;51.472;6.628;2023-08-01T14:53:04;29.70;52.30
1259;DHT22;619;51.472;6.628;2023-08-01T14:55:33;29.90;51.80
1259;DHT22;619;51.472;6.628;2023-08-01T14:57:59;30.10;51.20
1259;DHT22;619;51.472;6.628;2023-08-01T15:00:24;30.20;50.90
1259;DHT22;619;51.472;6.628;2023-08-01T15:02:50;30.20;51.50
1259;DHT22;619;51.472;6.628;2023-08-01T15:05:16;30.10;51.40
1259;DHT22;619;51.472;6.628;2023-08-01T15:07:42;30.20;51.10
1259;DHT22;619;51.472;6.628;2023-08-01T15:10:12;30.10;51.00
1259;DHT22;619;51.472;6.628;2023-08-01T15:12:40;30.00;51.00
1259;DHT22;619;51.472;6.628;2023-08-01T15:15:06;30.10;50.70
1259;DHT22;619;51.472;6.628;2023-08-01T15:17:34;30.00;50.10
1259;DHT22;619;51.472;6.628;2023-08-01T15:20:01;30.10;49.50
1259;DHT22;619;51.472;6.628;2023-08-01T15:22:26;30.00;49.60
1259;DHT22;619;51.472;6.628;2023-08-01T15:24:54;30.00;49.30
1259;DHT22;619;51.472;6.628;2023-08-01T15:27:20;30.00;49.90
1259;DHT22;619;51.472;6.628;2023-08-01T15:29:46;30.10;50.90
1259;DHT22;619;51.472;6.628;2023-08-01T15:32:17;30.30;50.20
1259;DHT22;619;51.472;6.628;2023-08-01T15:34:42;30.50;49.20
1259;DHT22;619;51.472;6.628;2023-08-01T15:37:10;30.50;48.60
1259;DHT22;619;51.472;6.628;2023-08-01T15:39:36;30.60;48.50
1259;DHT22;619;51.472;6.628;2023-08-01T15:42:02;30.70;49.00
1259;DHT22;619;51.472;6.628;2023-08-01T15:44:28;30.70;48.80
1259;DHT22;619;51.472;6.628;2023-08-01T15:46:56;30.60;48.60
1259;DHT22;619;51.472;6.628;2023-08-01T15:49:22;30.50;48.30
1259;DHT22;619;51.472;6.628;2023-08-01T15:51:49;30.40;48.90
1259;DHT22;619;51.472;6.628;2023-08-01T15:54:15;30.40;49.20
1259;DHT22;619;51.472;6.628;2023-08-01T15:56:41;30.40;49.70
1259;DHT22;619;51.472;6.628;2023-08-01T15:59:09;30.50;49.20
1259;DHT22;619;51.472;6.628;2023-08-01T16:01:35;30.50;48.20
1259;DHT22;619;51.472;6.628;2023-08-01T16:04:01;30.60;48.30
1259;DHT22;619;51.472;6.628;2023-08-01T16:06:26;30.60;48.40
1259;DHT22;619;51.472;6.628;2023-08-01T16:08:52;30.70;47.80
1259;DHT22;619;51.472;6.628;2023-08-01T16:11:20;30.70;47.40
1259;DHT22;619;51.472;6.628;2023-08-01T16:13:45;30.70;47.20
1259;DHT22;619;51.472;6.628;2023-08-01T16:16:13;30.70;45.70
1259;DHT22;619;51.472;6.628;2023-08-01T16:18:39;30.70;45.00
1259;DHT22;619;51.472;6.628;2023-08-01T16:21:04;30.70;44.40
1259;DHT22;619;51.472;6.628;2023-08-01T16:23:32;30.60;44.00